Overview Statistics Trail Chart Weather Telemetry Raw packets
 

This is the latest recevied weather packets stored in our database for station/object KF0RZX-13. If no packets are shown the sender has not sent any weather packets the latest 10 day(s).

<< 11 12 13 14 15 16 17 >>
Time Temp. Humidity Pressure Rain* Wind** Luminosity Snow
1787784136 27.78° C 35% 1024.7 hPa 0 mm - - -
1787782333 28.89° C 33% 1024.4 hPa 0 mm - - -
1787780527 28.89° C 33% 1025.1 hPa 0 mm - - -
1787778721 28.89° C 33% 1025.4 hPa 0 mm - - -
1787776916 28.89° C 35% 1025.7 hPa 0 mm - - -
1787775112 27.78° C 37% 1026.1 hPa 0 mm - - -
1787773306 27.78° C 37% 1026.1 hPa 0 mm - - -
1787771502 27.78° C 37% 1026.8 hPa 0 mm - - -
1787767874 26.11° C 42% 1027.4 hPa 0 mm - - -
1787766066 26.11° C 45% 1027.4 hPa 0 mm - - -
1787764265 25° C 44% 1027.4 hPa 0 mm - - -
1787762456 23.89° C 50% 1027.4 hPa 0 mm - - -
1787760651 22.78° C 61% 1027.1 hPa 0 mm - - -
1787758827 21.11° C 69% 1026.8 hPa 0 mm - - -
1787757020 21.11° C 69% 1026.8 hPa 0 mm - - -
1787755208 17.78° C 88% 1026.8 hPa 0 mm - - -
1787753404 17.22° C 94% 1026.8 hPa 0 mm - - -
1787751596 16.11° C 100% 1026.4 hPa 0 mm - - -
1787749794 15° C 100% 1026.1 hPa 0 mm - - -
1787747988 15° C 100% 1026.1 hPa 0 mm - - -
1787746182 15° C 100% 1026.1 hPa 0 mm - - -
1787744376 16.11° C 94% 1026.1 hPa 0 mm - - -
1787742571 16.11° C 94% 1026.1 hPa 0 mm - - -
1787740766 17.22° C 94% 1026.4 hPa 0 mm - - -
1787738961 17.78° C 83% 1026.1 hPa 0 mm - - -

* Rain latest hour (hover to see other rain measurements)
** Current wind speed in m/s (hover to see current wind gust speed)